createdAt,value
2022-12-11T00:01:50.934Z,6.73
2022-12-11T00:06:54.094Z,7.00
2022-12-11T00:11:58.177Z,6.90
2022-12-11T00:17:00.998Z,7.17
2022-12-11T00:22:04.023Z,6.33
2022-12-11T00:27:08.301Z,5.77
2022-12-11T00:32:11.140Z,6.27
2022-12-11T00:37:13.943Z,6.47
2022-12-11T00:42:18.237Z,6.03
2022-12-11T00:47:21.176Z,5.83
2022-12-11T00:52:24.709Z,5.97
2022-12-11T00:57:29.923Z,6.50
2022-12-11T01:02:32.642Z,7.00
2022-12-11T01:07:35.425Z,6.20
2022-12-11T01:12:39.815Z,7.10
2022-12-11T01:17:42.598Z,7.53
2022-12-11T01:22:45.337Z,6.33
2022-12-11T01:27:51.470Z,5.07
2022-12-11T01:32:54.242Z,5.10
2022-12-11T01:37:57.011Z,4.40
2022-12-11T01:43:01.059Z,4.77
2022-12-11T01:48:08.913Z,3.90
2022-12-11T01:53:14.207Z,4.20
2022-12-11T01:58:19.208Z,3.93
2022-12-11T02:03:22.272Z,3.87
2022-12-11T02:08:25.136Z,4.03
2022-12-11T02:13:34.075Z,4.10
2022-12-11T02:18:40.419Z,4.90
2022-12-11T02:24:06.160Z,4.00
2022-12-11T02:29:13.761Z,4.40
2022-12-11T02:34:20.853Z,3.80
2022-12-11T02:39:25.026Z,3.90
2022-12-11T02:44:31.282Z,3.70
2022-12-11T02:49:35.134Z,4.20
2022-12-11T02:54:38.941Z,3.47
2022-12-11T02:59:45.659Z,4.10
2022-12-11T03:04:49.150Z,4.13
2022-12-11T03:09:52.430Z,3.57
2022-12-11T03:14:57.061Z,4.23
2022-12-11T03:20:05.744Z,3.90
2022-12-11T03:25:13.544Z,4.00
2022-12-11T03:30:19.504Z,3.13
2022-12-11T03:35:29.086Z,3.73
2022-12-11T03:40:34.159Z,3.77
2022-12-11T03:45:39.274Z,3.73
2022-12-11T03:50:42.868Z,3.60
2022-12-11T03:55:46.194Z,3.83
2022-12-11T04:00:50.499Z,3.70
2022-12-11T04:05:56.055Z,3.67
2022-12-11T04:11:12.732Z,3.87
2022-12-11T04:16:16.914Z,3.47
2022-12-11T04:21:39.655Z,4.10
2022-12-11T04:26:43.297Z,4.10
2022-12-11T04:31:47.491Z,4.13
2022-12-11T04:36:50.480Z,4.40
2022-12-11T04:41:53.200Z,4.47
2022-12-11T04:46:57.492Z,3.87
2022-12-11T04:52:00.421Z,4.17
2022-12-11T04:57:03.133Z,4.27
2022-12-11T05:02:07.545Z,3.90
2022-12-11T05:07:10.576Z,4.30
2022-12-11T05:12:13.334Z,4.27
2022-12-11T05:17:17.438Z,4.20
2022-12-11T05:22:20.197Z,4.27
2022-12-11T05:27:22.976Z,3.97
2022-12-11T05:32:27.034Z,4.10
2022-12-11T05:37:30.094Z,3.47
2022-12-11T05:42:32.864Z,4.10
2022-12-11T05:47:36.952Z,4.63
2022-12-11T05:52:40.136Z,4.20
2022-12-11T05:57:42.893Z,3.97
2022-12-11T06:02:47.425Z,3.77
2022-12-11T06:07:50.295Z,3.97
2022-12-11T06:12:53.086Z,4.13
2022-12-11T06:17:57.216Z,4.00
2022-12-11T06:23:00.087Z,4.20
2022-12-11T06:28:02.873Z,3.77
2022-12-11T06:33:07.223Z,3.70
2022-12-11T06:38:10.482Z,3.53
2022-12-11T06:43:13.301Z,3.57
2022-12-11T06:48:17.585Z,2.90
2022-12-11T06:53:20.397Z,3.33
2022-12-11T06:58:23.135Z,3.30
2022-12-11T07:03:27.249Z,3.50
2022-12-11T07:08:31.867Z,3.70
2022-12-11T07:13:37.853Z,3.70
2022-12-11T07:18:43.275Z,3.23
2022-12-11T07:23:46.655Z,3.47
2022-12-11T07:28:50.594Z,3.10
2022-12-11T07:33:55.981Z,2.70
2022-12-11T07:38:59.708Z,3.47
2022-12-11T07:44:03.555Z,3.80
2022-12-11T07:49:08.123Z,3.10
2022-12-11T07:54:16.811Z,3.90
2022-12-11T07:59:19.626Z,3.57
2022-12-11T08:04:23.728Z,3.67
2022-12-11T08:09:27.345Z,3.60
2022-12-11T08:14:30.178Z,3.33
2022-12-11T08:19:34.609Z,3.80
2022-12-11T08:24:37.437Z,3.37
2022-12-11T08:29:40.210Z,3.87
2022-12-11T08:34:44.382Z,3.33
2022-12-11T08:39:47.953Z,4.07
2022-12-11T08:44:51.722Z,3.77
2022-12-11T08:49:57.757Z,4.30
2022-12-11T08:55:00.519Z,4.47
2022-12-11T09:00:03.727Z,4.77
2022-12-11T09:05:10.166Z,4.00
2022-12-11T09:10:13.177Z,4.00
2022-12-11T09:15:15.935Z,4.77
2022-12-11T09:20:20.364Z,4.30
2022-12-11T09:25:23.215Z,4.60
2022-12-11T09:30:26.157Z,4.93
2022-12-11T09:35:30.279Z,4.90
2022-12-11T09:40:33.500Z,4.47
2022-12-11T09:45:36.485Z,4.80
2022-12-11T09:50:40.808Z,5.57
2022-12-11T09:55:50.886Z,4.87
2022-12-11T10:00:57.724Z,4.90
2022-12-11T10:06:07.734Z,4.13
2022-12-11T10:11:24.081Z,4.93
2022-12-11T10:16:35.734Z,4.77
2022-12-11T10:21:41.623Z,4.33
2022-12-11T10:26:44.348Z,4.67
2022-12-11T10:31:51.916Z,4.80
2022-12-11T10:37:00.420Z,4.23
2022-12-11T10:42:13.116Z,3.97
2022-12-11T10:47:19.103Z,4.63
2022-12-11T10:52:24.839Z,4.40
2022-12-11T10:57:29.823Z,4.10
2022-12-11T11:02:34.235Z,4.40
2022-12-11T11:07:38.547Z,4.40
2022-12-11T11:12:43.508Z,4.30
2022-12-11T11:17:55.042Z,3.90
2022-12-11T11:23:01.927Z,4.63
2022-12-11T11:28:06.324Z,5.60
2022-12-11T11:33:15.393Z,4.40
2022-12-11T11:38:21.262Z,4.07
2022-12-11T11:43:32.619Z,4.27
2022-12-11T11:48:40.958Z,4.00
2022-12-11T11:53:49.304Z,4.10
2022-12-11T11:59:02.634Z,4.87
2022-12-11T12:04:05.979Z,4.73
2022-12-11T12:09:19.434Z,4.23
2022-12-11T12:19:55.779Z,4.90
2022-12-11T12:25:07.113Z,5.47
2022-12-11T12:30:15.118Z,4.63
2022-12-11T12:35:32.810Z,5.30
2022-12-11T12:40:41.515Z,4.57
2022-12-11T12:45:50.740Z,4.93
2022-12-11T12:50:53.744Z,4.20
2022-12-11T12:55:58.289Z,4.03
2022-12-11T13:01:19.622Z,4.10
2022-12-11T13:06:35.697Z,5.17
2022-12-11T13:11:39.867Z,5.03
2022-12-11T13:16:44.582Z,5.30
2022-12-11T13:21:56.783Z,4.80
2022-12-11T13:27:11.355Z,5.03
2022-12-11T13:32:23.697Z,4.63
2022-12-11T13:37:29.886Z,4.97
2022-12-11T13:42:36.674Z,4.73
2022-12-11T13:47:39.522Z,4.43
2022-12-11T13:52:42.835Z,4.87
2022-12-11T13:57:47.486Z,4.63
2022-12-11T14:02:51.034Z,4.40
2022-12-11T14:07:55.771Z,4.70
2022-12-11T14:13:02.136Z,5.37
2022-12-11T14:18:06.436Z,5.33
2022-12-11T14:23:18.621Z,5.77
2022-12-11T14:28:27.518Z,4.90
2022-12-11T14:33:33.965Z,5.33
2022-12-11T14:38:38.619Z,5.93
2022-12-11T14:43:45.574Z,5.03
2022-12-11T14:48:57.481Z,5.70
2022-12-11T14:54:04.207Z,6.23
2022-12-11T14:59:10.168Z,6.20
2022-12-11T15:04:25.001Z,6.30
2022-12-11T15:09:30.046Z,5.57
2022-12-11T15:14:34.393Z,5.63
2022-12-11T15:19:38.062Z,5.63
2022-12-11T15:24:52.473Z,5.47
2022-12-11T15:29:55.417Z,5.97
2022-12-11T15:34:59.872Z,5.47
2022-12-11T15:40:05.225Z,5.67
2022-12-11T15:45:10.218Z,5.70
2022-12-11T15:50:17.076Z,5.80
2022-12-11T15:55:22.294Z,5.20
2022-12-11T16:00:27.452Z,4.70
2022-12-11T16:05:30.192Z,6.13
2022-12-11T16:10:34.536Z,5.03
2022-12-11T16:15:38.562Z,5.23
2022-12-11T16:20:42.832Z,6.17
2022-12-11T16:25:47.646Z,5.23
2022-12-11T16:30:50.753Z,6.00
2022-12-11T16:35:53.568Z,6.10
2022-12-11T16:41:03.756Z,5.17
2022-12-11T16:46:07.098Z,5.90
2022-12-11T16:51:09.904Z,5.67
2022-12-11T16:56:14.058Z,6.40
2022-12-11T17:01:17.179Z,5.23
2022-12-11T17:06:20.317Z,5.87
2022-12-11T17:11:26.105Z,6.00
2022-12-11T17:16:30.451Z,6.17
2022-12-11T17:21:33.284Z,6.47
2022-12-11T17:26:37.493Z,5.17
2022-12-11T17:31:40.491Z,6.03
2022-12-11T17:36:43.372Z,5.50
2022-12-11T17:41:47.615Z,6.50
2022-12-11T17:46:50.623Z,6.37
2022-12-11T17:51:55.332Z,5.17
2022-12-11T17:56:59.497Z,5.80
2022-12-11T18:02:02.212Z,5.23
2022-12-11T18:07:05.110Z,7.27
2022-12-11T18:12:09.817Z,6.10
2022-12-11T18:17:12.565Z,6.30
2022-12-11T18:22:15.420Z,6.00
2022-12-11T18:27:19.704Z,6.13
2022-12-11T18:32:22.550Z,5.53
2022-12-11T18:37:28.144Z,5.27
2022-12-11T18:42:33.696Z,6.30
2022-12-11T18:47:37.302Z,5.93
2022-12-11T18:52:40.714Z,7.07
2022-12-11T18:57:44.885Z,6.53
2022-12-11T19:02:47.626Z,6.97
2022-12-11T19:07:50.549Z,6.60
2022-12-11T19:12:54.640Z,6.57
2022-12-11T19:17:57.407Z,5.90
2022-12-11T19:23:00.159Z,6.67
2022-12-11T19:28:04.362Z,6.87
2022-12-11T19:33:07.457Z,7.07
2022-12-11T19:38:10.331Z,6.10
2022-12-11T19:43:14.404Z,7.03
2022-12-11T19:48:17.429Z,6.20
2022-12-11T19:53:20.307Z,7.73
2022-12-11T19:58:24.759Z,6.23
2022-12-11T20:03:27.913Z,6.50
2022-12-11T20:08:46.430Z,6.40
2022-12-11T20:13:51.459Z,6.13
2022-12-11T20:18:54.809Z,6.43
2022-12-11T20:23:57.668Z,7.23
2022-12-11T20:29:05.047Z,7.90
2022-12-11T20:34:08.289Z,7.13
2022-12-11T20:39:11.102Z,7.23
2022-12-11T20:44:15.180Z,6.97
2022-12-11T20:49:17.894Z,7.27
2022-12-11T20:54:20.837Z,6.97
2022-12-11T20:59:26.042Z,6.97
2022-12-11T21:04:28.829Z,7.00
2022-12-11T21:09:31.619Z,7.70
2022-12-11T21:14:35.710Z,7.27
2022-12-11T21:19:40.098Z,6.60
2022-12-11T21:24:42.983Z,7.57
2022-12-11T21:29:47.193Z,7.30
2022-12-11T21:34:51.224Z,7.60
2022-12-11T21:39:56.088Z,7.63
2022-12-11T21:46:10.422Z,7.50
2022-12-11T21:50:22.895Z,6.37
2022-12-11T21:55:26.173Z,6.97
2022-12-11T22:00:30.238Z,7.53
2022-12-11T22:05:32.937Z,8.40
2022-12-11T22:10:35.698Z,7.17
2022-12-11T22:15:39.806Z,7.87
2022-12-11T22:20:42.533Z,8.00
2022-12-11T22:25:45.358Z,7.73
2022-12-11T22:30:49.504Z,7.40
2022-12-11T22:35:56.772Z,8.77
2022-12-11T22:40:59.538Z,8.03
2022-12-11T22:46:03.666Z,7.80
2022-12-11T22:51:08.316Z,8.17
2022-12-11T22:56:12.651Z,7.47
2022-12-11T23:01:18.842Z,7.27
2022-12-11T23:06:23.732Z,7.50
2022-12-11T23:11:28.851Z,6.73
2022-12-11T23:16:33.732Z,7.13
2022-12-11T23:21:36.583Z,7.57
2022-12-11T23:26:39.407Z,6.93
2022-12-11T23:31:43.497Z,7.93
2022-12-11T23:36:46.425Z,7.70
2022-12-11T23:41:49.172Z,6.97
2022-12-11T23:46:53.289Z,7.93
2022-12-11T23:51:56.112Z,8.17
2022-12-11T23:56:58.871Z,7.40
